Accueil
METAR-TAF:

METAR-TAF

Aéroports :

Touho, Nouvelle-Calédonie

Aérodrome de Touho

latitude: 20-47-25S, longitude: 165-15-34E, altitude: 3 m

METAR: absent

Heure: 17:59 (06:59 UTC)

Prévision

Le bulletin a été fait il y a 13 heures et 59 minutes, à 17:00 UTC
Prévision valable du 26 à 18 UTC au 27 à 18 UTC
Vent 5 kt de sud
Visibilité 10 km ou plus
Quelques nuages à une hauteur de 4000 ft
Evoluant progressivement
du 26 à 22 UTC au 26 à 24 UTC
Vent 10 kt de est/sud-est
Evoluant progressivement
du 27 à 06 UTC au 27 à 08 UTC
Vent 5 kt de sud

TAF: NWWU 261700Z 2618/2718 18005KT 9999 FEW040 BECMG 2622/2624 11010KT BECMG 2706/2708 18005KT

Observations et prévisions météorologiques de plus de 4000 aéroports (messages METAR et TAF).

Les stations disponibles sont représentées par des disques jaunes et rouges sur la carte.

Passer la souris dessus pour voir le nom de la station.

Cliquer dessus pour voir les observations et prévisions météorologiques.

Pour changer de carte: cliquez sur les boutons verts avec une croix noire pour zoomer, sur le bouton vert avec un tiret pour effectuer un zoom arrière, ou sur les flèches vertes pour les cartes adjacentes.


METAR-TAF: